Terminal Aerodrome Forecast
Issued by NWS Mt. Holly, NJ

Home | Current Version | Previous Version | Text Only | Print | Product List | Glossary On
Versions: 1 2 3 4 5 6 7 8 9 10 11 12 13 14
000
FTUS41 KPHI 191700 RRA
TAFILG
TAF
KILG 191745Z 1918/2018 09012KT P6SM BKN030
     FM191900 11009KT P6SM BKN035
     FM200800 12005KT P6SM OVC025
     FM201100 14004KT P6SM OVC015
     FM201400 16007KT P6SM OVC025
     FM201700 19011KT P6SM BKN035=

USA.gov is the U.S. government's official web portal to all federal, state and local government web resources and services.